sensor_id;sensor_type;location;lat;lon;timestamp;P1;durP1;ratioP1;P2;durP2;ratioP2
14599;SDS011;7386;45.586;12.854;2023-07-30T00:00:19;9.60;;;7.55;;
14599;SDS011;7386;45.586;12.854;2023-07-30T00:02:49;10.52;;;8.05;;
14599;SDS011;7386;45.586;12.854;2023-07-30T00:05:17;10.55;;;8.82;;
14599;SDS011;7386;45.586;12.854;2023-07-30T00:07:46;12.27;;;8.63;;
14599;SDS011;7386;45.586;12.854;2023-07-30T00:10:14;9.45;;;8.23;;
14599;SDS011;7386;45.586;12.854;2023-07-30T00:12:43;13.23;;;8.35;;
14599;SDS011;7386;45.586;12.854;2023-07-30T00:15:11;12.43;;;9.05;;
14599;SDS011;7386;45.586;12.854;2023-07-30T00:17:40;10.52;;;8.23;;
14599;SDS011;7386;45.586;12.854;2023-07-30T00:20:10;11.20;;;8.75;;
14599;SDS011;7386;45.586;12.854;2023-07-30T00:22:39;8.80;;;7.68;;
14599;SDS011;7386;45.586;12.854;2023-07-30T00:25:07;10.13;;;8.05;;
14599;SDS011;7386;45.586;12.854;2023-07-30T00:27:36;9.30;;;7.75;;
14599;SDS011;7386;45.586;12.854;2023-07-30T00:30:05;10.43;;;8.63;;
14599;SDS011;7386;45.586;12.854;2023-07-30T00:32:33;10.02;;;8.25;;
14599;SDS011;7386;45.586;12.854;2023-07-30T00:35:02;12.10;;;8.52;;
14599;SDS011;7386;45.586;12.854;2023-07-30T00:37:32;8.98;;;7.72;;
14599;SDS011;7386;45.586;12.854;2023-07-30T00:40:01;10.40;;;9.02;;
14599;SDS011;7386;45.586;12.854;2023-07-30T00:42:29;12.75;;;9.25;;
14599;SDS011;7386;45.586;12.854;2023-07-30T00:44:58;12.80;;;9.02;;
14599;SDS011;7386;45.586;12.854;2023-07-30T00:47:26;11.63;;;9.35;;
14599;SDS011;7386;45.586;12.854;2023-07-30T00:49:55;9.98;;;8.32;;
14599;SDS011;7386;45.586;12.854;2023-07-30T00:52:23;13.15;;;8.23;;
14599;SDS011;7386;45.586;12.854;2023-07-30T00:54:55;10.05;;;8.77;;
14599;SDS011;7386;45.586;12.854;2023-07-30T00:57:25;9.57;;;8.43;;
14599;SDS011;7386;45.586;12.854;2023-07-30T00:59:54;9.55;;;8.23;;
14599;SDS011;7386;45.586;12.854;2023-07-30T01:02:23;11.45;;;8.40;;
14599;SDS011;7386;45.586;12.854;2023-07-30T01:04:52;11.45;;;8.00;;
14599;SDS011;7386;45.586;12.854;2023-07-30T01:07:21;11.35;;;8.48;;
14599;SDS011;7386;45.586;12.854;2023-07-30T01:09:49;10.98;;;7.93;;
14599;SDS011;7386;45.586;12.854;2023-07-30T01:12:19;9.27;;;7.90;;
14599;SDS011;7386;45.586;12.854;2023-07-30T01:14:48;10.52;;;8.30;;
14599;SDS011;7386;45.586;12.854;2023-07-30T01:17:17;10.00;;;8.10;;
14599;SDS011;7386;45.586;12.854;2023-07-30T01:19:46;10.48;;;9.30;;
14599;SDS011;7386;45.586;12.854;2023-07-30T01:22:17;10.90;;;9.63;;
14599;SDS011;7386;45.586;12.854;2023-07-30T01:24:45;15.18;;;11.65;;
14599;SDS011;7386;45.586;12.854;2023-07-30T01:27:15;13.02;;;10.38;;
14599;SDS011;7386;45.586;12.854;2023-07-30T01:29:45;11.48;;;9.18;;
14599;SDS011;7386;45.586;12.854;2023-07-30T01:32:17;9.95;;;8.65;;
14599;SDS011;7386;45.586;12.854;2023-07-30T01:34:46;12.02;;;9.55;;
14599;SDS011;7386;45.586;12.854;2023-07-30T01:37:16;12.52;;;8.73;;
14599;SDS011;7386;45.586;12.854;2023-07-30T01:39:45;11.00;;;8.80;;
14599;SDS011;7386;45.586;12.854;2023-07-30T01:42:14;12.40;;;8.95;;
14599;SDS011;7386;45.586;12.854;2023-07-30T01:44:42;12.90;;;9.73;;
14599;SDS011;7386;45.586;12.854;2023-07-30T01:47:11;14.30;;;10.27;;
14599;SDS011;7386;45.586;12.854;2023-07-30T01:49:39;17.05;;;10.68;;
14599;SDS011;7386;45.586;12.854;2023-07-30T01:52:08;14.05;;;10.13;;
14599;SDS011;7386;45.586;12.854;2023-07-30T01:54:38;12.68;;;10.00;;
14599;SDS011;7386;45.586;12.854;2023-07-30T01:57:06;12.82;;;9.85;;
14599;SDS011;7386;45.586;12.854;2023-07-30T01:59:35;13.18;;;10.23;;
14599;SDS011;7386;45.586;12.854;2023-07-30T02:02:03;13.32;;;9.95;;
14599;SDS011;7386;45.586;12.854;2023-07-30T02:04:33;13.15;;;9.95;;
14599;SDS011;7386;45.586;12.854;2023-07-30T02:07:02;15.40;;;10.15;;
14599;SDS011;7386;45.586;12.854;2023-07-30T02:09:30;14.07;;;10.30;;
14599;SDS011;7386;45.586;12.854;2023-07-30T02:12:00;10.45;;;9.13;;
14599;SDS011;7386;45.586;12.854;2023-07-30T02:14:29;12.23;;;9.27;;
14599;SDS011;7386;45.586;12.854;2023-07-30T02:16:58;14.80;;;9.40;;
14599;SDS011;7386;45.586;12.854;2023-07-30T02:19:26;11.85;;;9.05;;
14599;SDS011;7386;45.586;12.854;2023-07-30T02:21:55;14.07;;;9.00;;
14599;SDS011;7386;45.586;12.854;2023-07-30T02:24:23;11.77;;;8.57;;
14599;SDS011;7386;45.586;12.854;2023-07-30T02:26:51;11.57;;;8.27;;
14599;SDS011;7386;45.586;12.854;2023-07-30T02:29:21;10.32;;;8.52;;
14599;SDS011;7386;45.586;12.854;2023-07-30T02:31:50;10.50;;;7.97;;
14599;SDS011;7386;45.586;12.854;2023-07-30T02:34:18;9.48;;;7.40;;
14599;SDS011;7386;45.586;12.854;2023-07-30T02:36:48;11.93;;;8.00;;
14599;SDS011;7386;45.586;12.854;2023-07-30T02:39:17;9.27;;;7.65;;
14599;SDS011;7386;45.586;12.854;2023-07-30T02:41:46;11.23;;;7.97;;
14599;SDS011;7386;45.586;12.854;2023-07-30T02:44:15;9.82;;;7.45;;
14599;SDS011;7386;45.586;12.854;2023-07-30T02:46:45;8.32;;;6.50;;
14599;SDS011;7386;45.586;12.854;2023-07-30T02:49:13;8.75;;;6.78;;
14599;SDS011;7386;45.586;12.854;2023-07-30T02:51:42;9.90;;;6.85;;
14599;SDS011;7386;45.586;12.854;2023-07-30T02:54:15;7.97;;;6.07;;
14599;SDS011;7386;45.586;12.854;2023-07-30T02:56:43;6.65;;;5.78;;
14599;SDS011;7386;45.586;12.854;2023-07-30T02:59:12;6.22;;;4.63;;
14599;SDS011;7386;45.586;12.854;2023-07-30T03:01:40;6.10;;;3.83;;
14599;SDS011;7386;45.586;12.854;2023-07-30T03:04:11;4.78;;;3.00;;
14599;SDS011;7386;45.586;12.854;2023-07-30T03:06:40;4.05;;;2.70;;
14599;SDS011;7386;45.586;12.854;2023-07-30T03:09:08;3.25;;;2.58;;
14599;SDS011;7386;45.586;12.854;2023-07-30T03:11:37;3.05;;;2.45;;
14599;SDS011;7386;45.586;12.854;2023-07-30T03:14:06;5.80;;;2.92;;
14599;SDS011;7386;45.586;12.854;2023-07-30T03:16:34;4.10;;;2.65;;
14599;SDS011;7386;45.586;12.854;2023-07-30T03:19:03;3.65;;;2.67;;
14599;SDS011;7386;45.586;12.854;2023-07-30T03:21:33;3.15;;;2.53;;
14599;SDS011;7386;45.586;12.854;2023-07-30T03:24:02;4.18;;;2.40;;
14599;SDS011;7386;45.586;12.854;2023-07-30T03:26:30;4.95;;;2.40;;
14599;SDS011;7386;45.586;12.854;2023-07-30T03:28:59;2.92;;;2.53;;
14599;SDS011;7386;45.586;12.854;2023-07-30T03:31:28;2.90;;;2.60;;
14599;SDS011;7386;45.586;12.854;2023-07-30T03:33:56;2.53;;;2.20;;
14599;SDS011;7386;45.586;12.854;2023-07-30T03:36:25;3.60;;;2.60;;
14599;SDS011;7386;45.586;12.854;2023-07-30T03:38:54;2.67;;;2.25;;
14599;SDS011;7386;45.586;12.854;2023-07-30T03:41:23;2.78;;;2.35;;
14599;SDS011;7386;45.586;12.854;2023-07-30T03:43:51;3.22;;;2.10;;
14599;SDS011;7386;45.586;12.854;2023-07-30T03:46:20;3.67;;;2.28;;
14599;SDS011;7386;45.586;12.854;2023-07-30T03:48:48;2.85;;;2.10;;
14599;SDS011;7386;45.586;12.854;2023-07-30T03:51:17;2.85;;;1.90;;
14599;SDS011;7386;45.586;12.854;2023-07-30T03:53:45;3.22;;;2.10;;
14599;SDS011;7386;45.586;12.854;2023-07-30T03:56:15;2.75;;;2.13;;
14599;SDS011;7386;45.586;12.854;2023-07-30T03:58:44;2.17;;;1.95;;
14599;SDS011;7386;45.586;12.854;2023-07-30T04:01:12;1.95;;;1.85;;
14599;SDS011;7386;45.586;12.854;2023-07-30T04:03:41;2.20;;;2.00;;
14599;SDS011;7386;45.586;12.854;2023-07-30T04:06:09;2.08;;;1.88;;
14599;SDS011;7386;45.586;12.854;2023-07-30T04:08:38;1.80;;;1.70;;
14599;SDS011;7386;45.586;12.854;2023-07-30T04:11:06;1.83;;;1.70;;
14599;SDS011;7386;45.586;12.854;2023-07-30T04:13:36;1.70;;;1.60;;
14599;SDS011;7386;45.586;12.854;2023-07-30T04:16:05;1.48;;;1.38;;
14599;SDS011;7386;45.586;12.854;2023-07-30T04:18:33;1.70;;;1.60;;
14599;SDS011;7386;45.586;12.854;2023-07-30T04:21:02;1.42;;;1.33;;
14599;SDS011;7386;45.586;12.854;2023-07-30T04:23:30;1.38;;;1.27;;
14599;SDS011;7386;45.586;12.854;2023-07-30T04:25:59;1.35;;;1.30;;
14599;SDS011;7386;45.586;12.854;2023-07-30T04:28:27;1.50;;;1.40;;
14599;SDS011;7386;45.586;12.854;2023-07-30T04:30:57;1.52;;;1.42;;
14599;SDS011;7386;45.586;12.854;2023-07-30T04:33:26;1.77;;;1.58;;
14599;SDS011;7386;45.586;12.854;2023-07-30T04:35:55;1.67;;;1.40;;
14599;SDS011;7386;45.586;12.854;2023-07-30T04:38:23;1.58;;;1.48;;
14599;SDS011;7386;45.586;12.854;2023-07-30T04:40:52;1.60;;;1.50;;
14599;SDS011;7386;45.586;12.854;2023-07-30T04:43:20;2.35;;;1.52;;
14599;SDS011;7386;45.586;12.854;2023-07-30T04:45:49;1.55;;;1.45;;
14599;SDS011;7386;45.586;12.854;2023-07-30T04:48:18;1.63;;;1.52;;
14599;SDS011;7386;45.586;12.854;2023-07-30T04:50:47;2.50;;;1.85;;
14599;SDS011;7386;45.586;12.854;2023-07-30T04:53:15;2.22;;;1.80;;
14599;SDS011;7386;45.586;12.854;2023-07-30T04:55:44;2.03;;;1.77;;
14599;SDS011;7386;45.586;12.854;2023-07-30T04:58:13;2.55;;;1.67;;
14599;SDS011;7386;45.586;12.854;2023-07-30T05:00:43;2.35;;;1.90;;
14599;SDS011;7386;45.586;12.854;2023-07-30T05:03:11;2.58;;;1.75;;
14599;SDS011;7386;45.586;12.854;2023-07-30T05:05:41;2.15;;;1.83;;
14599;SDS011;7386;45.586;12.854;2023-07-30T05:08:10;2.55;;;1.77;;
14599;SDS011;7386;45.586;12.854;2023-07-30T05:10:38;2.55;;;2.05;;
14599;SDS011;7386;45.586;12.854;2023-07-30T05:13:07;3.05;;;1.88;;
14599;SDS011;7386;45.586;12.854;2023-07-30T05:15:36;2.30;;;2.10;;
14599;SDS011;7386;45.586;12.854;2023-07-30T05:18:04;2.13;;;1.92;;
14599;SDS011;7386;45.586;12.854;2023-07-30T05:20:33;3.70;;;2.15;;
14599;SDS011;7386;45.586;12.854;2023-07-30T05:23:03;3.22;;;2.15;;
14599;SDS011;7386;45.586;12.854;2023-07-30T05:25:33;4.00;;;2.05;;
14599;SDS011;7386;45.586;12.854;2023-07-30T05:28:02;2.13;;;1.98;;
14599;SDS011;7386;45.586;12.854;2023-07-30T05:30:30;4.43;;;2.20;;
14599;SDS011;7386;45.586;12.854;2023-07-30T05:32:59;2.40;;;2.17;;
14599;SDS011;7386;45.586;12.854;2023-07-30T05:35:27;2.90;;;2.55;;
14599;SDS011;7386;45.586;12.854;2023-07-30T05:37:58;3.55;;;2.50;;
14599;SDS011;7386;45.586;12.854;2023-07-30T05:40:28;3.08;;;2.65;;
14599;SDS011;7386;45.586;12.854;2023-07-30T05:42:57;4.47;;;2.80;;
14599;SDS011;7386;45.586;12.854;2023-07-30T05:45:27;2.88;;;2.58;;
14599;SDS011;7386;45.586;12.854;2023-07-30T05:47:55;3.10;;;2.80;;
14599;SDS011;7386;45.586;12.854;2023-07-30T05:50:24;3.10;;;2.80;;
14599;SDS011;7386;45.586;12.854;2023-07-30T05:52:52;4.05;;;3.42;;
14599;SDS011;7386;45.586;12.854;2023-07-30T05:55:21;4.68;;;4.00;;
14599;SDS011;7386;45.586;12.854;2023-07-30T05:57:51;5.30;;;4.43;;
14599;SDS011;7386;45.586;12.854;2023-07-30T06:00:19;4.78;;;4.28;;
14599;SDS011;7386;45.586;12.854;2023-07-30T06:02:48;4.85;;;3.80;;
14599;SDS011;7386;45.586;12.854;2023-07-30T06:05:16;4.22;;;3.80;;
14599;SDS011;7386;45.586;12.854;2023-07-30T06:07:45;4.65;;;4.07;;
14599;SDS011;7386;45.586;12.854;2023-07-30T06:10:13;5.13;;;3.70;;
14599;SDS011;7386;45.586;12.854;2023-07-30T06:12:42;4.63;;;3.90;;
14599;SDS011;7386;45.586;12.854;2023-07-30T06:15:12;6.05;;;3.92;;
14599;SDS011;7386;45.586;12.854;2023-07-30T06:17:40;4.47;;;3.72;;
14599;SDS011;7386;45.586;12.854;2023-07-30T06:20:09;4.20;;;3.63;;
14599;SDS011;7386;45.586;12.854;2023-07-30T06:22:37;5.82;;;3.72;;
14599;SDS011;7386;45.586;12.854;2023-07-30T06:25:06;5.93;;;4.00;;
14599;SDS011;7386;45.586;12.854;2023-07-30T06:27:34;4.30;;;3.55;;
14599;SDS011;7386;45.586;12.854;2023-07-30T06:30:03;4.35;;;3.40;;
14599;SDS011;7386;45.586;12.854;2023-07-30T06:32:33;4.72;;;3.70;;
14599;SDS011;7386;45.586;12.854;2023-07-30T06:35:02;4.70;;;3.47;;
14599;SDS011;7386;45.586;12.854;2023-07-30T06:37:31;4.60;;;3.60;;
14599;SDS011;7386;45.586;12.854;2023-07-30T06:40:00;5.65;;;3.72;;
14599;SDS011;7386;45.586;12.854;2023-07-30T06:42:30;4.93;;;3.55;;
14599;SDS011;7386;45.586;12.854;2023-07-30T06:44:59;4.05;;;3.20;;
14599;SDS011;7386;45.586;12.854;2023-07-30T06:47:27;3.92;;;3.50;;
14599;SDS011;7386;45.586;12.854;2023-07-30T06:49:57;4.57;;;3.25;;
14599;SDS011;7386;45.586;12.854;2023-07-30T06:52:25;3.70;;;3.30;;
14599;SDS011;7386;45.586;12.854;2023-07-30T06:54:54;3.28;;;2.83;;
14599;SDS011;7386;45.586;12.854;2023-07-30T06:57:23;3.85;;;3.40;;
14599;SDS011;7386;45.586;12.854;2023-07-30T06:59:51;3.88;;;3.00;;
14599;SDS011;7386;45.586;12.854;2023-07-30T07:02:20;3.65;;;2.70;;
14599;SDS011;7386;45.586;12.854;2023-07-30T07:04:48;4.32;;;3.10;;
14599;SDS011;7386;45.586;12.854;2023-07-30T07:07:18;5.10;;;3.10;;
14599;SDS011;7386;45.586;12.854;2023-07-30T07:09:47;3.70;;;3.05;;
14599;SDS011;7386;45.586;12.854;2023-07-30T07:12:15;4.32;;;2.80;;
14599;SDS011;7386;45.586;12.854;2023-07-30T07:14:44;3.38;;;3.00;;
14599;SDS011;7386;45.586;12.854;2023-07-30T07:17:12;3.40;;;2.80;;
14599;SDS011;7386;45.586;12.854;2023-07-30T07:19:41;3.25;;;2.88;;
14599;SDS011;7386;45.586;12.854;2023-07-30T07:22:09;3.50;;;3.13;;
14599;SDS011;7386;45.586;12.854;2023-07-30T07:24:39;2.90;;;2.60;;
14599;SDS011;7386;45.586;12.854;2023-07-30T07:27:08;3.15;;;2.63;;
14599;SDS011;7386;45.586;12.854;2023-07-30T07:29:36;2.70;;;2.40;;
14599;SDS011;7386;45.586;12.854;2023-07-30T07:32:05;2.45;;;2.10;;
14599;SDS011;7386;45.586;12.854;2023-07-30T07:34:34;2.30;;;2.10;;
14599;SDS011;7386;45.586;12.854;2023-07-30T07:37:02;2.40;;;2.20;;
14599;SDS011;7386;45.586;12.854;2023-07-30T07:39:32;2.67;;;2.40;;
14599;SDS011;7386;45.586;12.854;2023-07-30T07:42:02;2.78;;;2.50;;
14599;SDS011;7386;45.586;12.854;2023-07-30T07:44:30;2.30;;;2.10;;
14599;SDS011;7386;45.586;12.854;2023-07-30T07:46:59;2.45;;;2.25;;
14599;SDS011;7386;45.586;12.854;2023-07-30T07:49:27;2.40;;;1.90;;
14599;SDS011;7386;45.586;12.854;2023-07-30T07:51:56;2.75;;;2.03;;
14599;SDS011;7386;45.586;12.854;2023-07-30T07:54:24;3.05;;;2.00;;
14599;SDS011;7386;45.586;12.854;2023-07-30T07:56:53;3.92;;;2.00;;
14599;SDS011;7386;45.586;12.854;2023-07-30T07:59:23;2.13;;;1.98;;
14599;SDS011;7386;45.586;12.854;2023-07-30T08:01:51;23.20;;;8.63;;
14599;SDS011;7386;45.586;12.854;2023-07-30T08:04:20;20.75;;;8.60;;
14599;SDS011;7386;45.586;12.854;2023-07-30T08:06:49;16.80;;;6.95;;
14599;SDS011;7386;45.586;12.854;2023-07-30T08:09:17;10.75;;;4.85;;
14599;SDS011;7386;45.586;12.854;2023-07-30T08:11:46;6.72;;;3.80;;
14599;SDS011;7386;45.586;12.854;2023-07-30T08:14:14;4.25;;;3.10;;
14599;SDS011;7386;45.586;12.854;2023-07-30T08:16:46;3.65;;;2.58;;
14599;SDS011;7386;45.586;12.854;2023-07-30T08:19:15;2.67;;;2.08;;
14599;SDS011;7386;45.586;12.854;2023-07-30T08:21:43;3.10;;;2.30;;
14599;SDS011;7386;45.586;12.854;2023-07-30T08:24:12;3.97;;;2.15;;
14599;SDS011;7386;45.586;12.854;2023-07-30T08:26:40;2.58;;;2.15;;
14599;SDS011;7386;45.586;12.854;2023-07-30T08:29:09;2.33;;;2.10;;
14599;SDS011;7386;45.586;12.854;2023-07-30T08:31:40;2.75;;;2.10;;
14599;SDS011;7386;45.586;12.854;2023-07-30T08:34:10;2.97;;;2.00;;
14599;SDS011;7386;45.586;12.854;2023-07-30T08:36:39;3.13;;;1.90;;
14599;SDS011;7386;45.586;12.854;2023-07-30T08:39:07;2.92;;;2.08;;
14599;SDS011;7386;45.586;12.854;2023-07-30T08:41:36;3.78;;;2.08;;
14599;SDS011;7386;45.586;12.854;2023-07-30T08:44:05;2.80;;;2.38;;
14599;SDS011;7386;45.586;12.854;2023-07-30T08:46:33;2.65;;;2.00;;
14599;SDS011;7386;45.586;12.854;2023-07-30T08:49:02;2.42;;;2.13;;
14599;SDS011;7386;45.586;12.854;2023-07-30T08:51:32;2.13;;;1.90;;
14599;SDS011;7386;45.586;12.854;2023-07-30T08:54:04;2.35;;;1.60;;
14599;SDS011;7386;45.586;12.854;2023-07-30T08:56:33;2.10;;;1.77;;
14599;SDS011;7386;45.586;12.854;2023-07-30T08:59:01;2.67;;;2.00;;
14599;SDS011;7386;45.586;12.854;2023-07-30T09:01:32;2.42;;;1.80;;
14599;SDS011;7386;45.586;12.854;2023-07-30T09:04:03;3.05;;;1.70;;
14599;SDS011;7386;45.586;12.854;2023-07-30T09:06:34;1.85;;;1.70;;
14599;SDS011;7386;45.586;12.854;2023-07-30T09:09:02;2.00;;;1.80;;
14599;SDS011;7386;45.586;12.854;2023-07-30T09:11:31;2.13;;;1.67;;
14599;SDS011;7386;45.586;12.854;2023-07-30T09:14:00;3.08;;;1.80;;
14599;SDS011;7386;45.586;12.854;2023-07-30T09:16:29;2.28;;;1.70;;
14599;SDS011;7386;45.586;12.854;2023-07-30T09:18:58;1.65;;;1.42;;
14599;SDS011;7386;45.586;12.854;2023-07-30T09:21:29;3.60;;;2.92;;
14599;SDS011;7386;45.586;12.854;2023-07-30T09:24:00;3.90;;;2.97;;
14599;SDS011;7386;45.586;12.854;2023-07-30T09:26:45;4.07;;;1.70;;
14599;SDS011;7386;45.586;12.854;2023-07-30T09:29:13;1.58;;;1.40;;
14599;SDS011;7386;45.586;12.854;2023-07-30T09:31:48;1.65;;;1.40;;
14599;SDS011;7386;45.586;12.854;2023-07-30T09:34:18;3.00;;;2.15;;
14599;SDS011;7386;45.586;12.854;2023-07-30T09:36:46;3.03;;;1.40;;
14599;SDS011;7386;45.586;12.854;2023-07-30T09:39:19;2.38;;;1.50;;
14599;SDS011;7386;45.586;12.854;2023-07-30T09:41:48;1.50;;;1.30;;
14599;SDS011;7386;45.586;12.854;2023-07-30T09:44:17;1.67;;;1.48;;
14599;SDS011;7386;45.586;12.854;2023-07-30T09:46:47;2.35;;;1.48;;
14599;SDS011;7386;45.586;12.854;2023-07-30T09:49:15;2.55;;;1.40;;
14599;SDS011;7386;45.586;12.854;2023-07-30T09:51:44;2.40;;;1.33;;
14599;SDS011;7386;45.586;12.854;2023-07-30T09:54:13;1.23;;;1.13;;
14599;SDS011;7386;45.586;12.854;2023-07-30T09:56:43;1.55;;;1.27;;
14599;SDS011;7386;45.586;12.854;2023-07-30T09:59:12;1.90;;;1.35;;
14599;SDS011;7386;45.586;12.854;2023-07-30T10:01:42;1.73;;;1.25;;
14599;SDS011;7386;45.586;12.854;2023-07-30T10:04:11;1.10;;;1.10;;
14599;SDS011;7386;45.586;12.854;2023-07-30T10:06:41;2.25;;;1.40;;
14599;SDS011;7386;45.586;12.854;2023-07-30T10:09:11;1.83;;;1.25;;
14599;SDS011;7386;45.586;12.854;2023-07-30T10:11:41;2.60;;;1.42;;
14599;SDS011;7386;45.586;12.854;2023-07-30T10:14:11;1.80;;;1.35;;
14599;SDS011;7386;45.586;12.854;2023-07-30T10:16:48;1.50;;;1.20;;
14599;SDS011;7386;45.586;12.854;2023-07-30T10:19:17;1.50;;;1.40;;
14599;SDS011;7386;45.586;12.854;2023-07-30T10:21:50;1.85;;;1.38;;
14599;SDS011;7386;45.586;12.854;2023-07-30T10:24:18;1.45;;;1.17;;
14599;SDS011;7386;45.586;12.854;2023-07-30T10:26:47;1.33;;;1.10;;
14599;SDS011;7386;45.586;12.854;2023-07-30T10:29:17;2.72;;;1.30;;
14599;SDS011;7386;45.586;12.854;2023-07-30T10:31:48;1.45;;;1.25;;
14599;SDS011;7386;45.586;12.854;2023-07-30T10:34:17;1.33;;;1.23;;
14599;SDS011;7386;45.586;12.854;2023-07-30T10:36:45;1.45;;;1.35;;
14599;SDS011;7386;45.586;12.854;2023-07-30T10:39:15;1.25;;;1.15;;
14599;SDS011;7386;45.586;12.854;2023-07-30T10:41:44;2.58;;;1.27;;
14599;SDS011;7386;45.586;12.854;2023-07-30T10:44:23;1.77;;;1.52;;
14599;SDS011;7386;45.586;12.854;2023-07-30T10:46:52;2.00;;;1.50;;
14599;SDS011;7386;45.586;12.854;2023-07-30T10:49:20;1.50;;;1.38;;
14599;SDS011;7386;45.586;12.854;2023-07-30T10:51:50;1.30;;;1.20;;
14599;SDS011;7386;45.586;12.854;2023-07-30T10:54:19;2.88;;;1.25;;
14599;SDS011;7386;45.586;12.854;2023-07-30T10:56:48;1.45;;;1.25;;
14599;SDS011;7386;45.586;12.854;2023-07-30T10:59:17;1.35;;;1.25;;
14599;SDS011;7386;45.586;12.854;2023-07-30T11:01:47;2.13;;;1.38;;
14599;SDS011;7386;45.586;12.854;2023-07-30T11:04:16;1.63;;;1.20;;
14599;SDS011;7386;45.586;12.854;2023-07-30T11:06:45;1.23;;;1.13;;
14599;SDS011;7386;45.586;12.854;2023-07-30T11:09:19;1.17;;;1.10;;
14599;SDS011;7386;45.586;12.854;2023-07-30T11:11:48;4.07;;;1.50;;
14599;SDS011;7386;45.586;12.854;2023-07-30T11:14:17;2.78;;;1.60;;
14599;SDS011;7386;45.586;12.854;2023-07-30T11:16:49;1.02;;;1.02;;
14599;SDS011;7386;45.586;12.854;2023-07-30T11:19:17;1.63;;;1.20;;
14599;SDS011;7386;45.586;12.854;2023-07-30T11:21:46;2.10;;;1.30;;
14599;SDS011;7386;45.586;12.854;2023-07-30T11:24:19;1.35;;;1.25;;
14599;SDS011;7386;45.586;12.854;2023-07-30T11:26:56;1.33;;;1.23;;
14599;SDS011;7386;45.586;12.854;2023-07-30T11:29:25;2.05;;;1.00;;
14599;SDS011;7386;45.586;12.854;2023-07-30T11:31:57;1.20;;;1.10;;
14599;SDS011;7386;45.586;12.854;2023-07-30T11:34:26;1.50;;;1.30;;
14599;SDS011;7386;45.586;12.854;2023-07-30T11:36:55;1.30;;;1.20;;
14599;SDS011;7386;45.586;12.854;2023-07-30T11:39:26;1.52;;;1.42;;
14599;SDS011;7386;45.586;12.854;2023-07-30T11:41:55;3.10;;;1.45;;
14599;SDS011;7386;45.586;12.854;2023-07-30T11:44:30;2.13;;;1.30;;
14599;SDS011;7386;45.586;12.854;2023-07-30T11:47:00;1.58;;;1.40;;
14599;SDS011;7386;45.586;12.854;2023-07-30T11:49:30;2.65;;;1.45;;
14599;SDS011;7386;45.586;12.854;2023-07-30T11:52:05;1.33;;;1.15;;
14599;SDS011;7386;45.586;12.854;2023-07-30T11:54:34;1.50;;;1.40;;
14599;SDS011;7386;45.586;12.854;2023-07-30T11:57:02;2.22;;;1.38;;
14599;SDS011;7386;45.586;12.854;2023-07-30T11:59:31;1.88;;;1.40;;
14599;SDS011;7386;45.586;12.854;2023-07-30T12:02:01;1.33;;;1.10;;
14599;SDS011;7386;45.586;12.854;2023-07-30T12:04:30;1.50;;;1.20;;
14599;SDS011;7386;45.586;12.854;2023-07-30T12:06:59;1.13;;;1.02;;
14599;SDS011;7386;45.586;12.854;2023-07-30T12:09:28;1.35;;;1.25;;
14599;SDS011;7386;45.586;12.854;2023-07-30T12:11:57;1.58;;;1.27;;
14599;SDS011;7386;45.586;12.854;2023-07-30T12:14:26;1.20;;;1.10;;
14599;SDS011;7386;45.586;12.854;2023-07-30T12:16:58;1.23;;;1.10;;
14599;SDS011;7386;45.586;12.854;2023-07-30T12:19:28;1.63;;;1.23;;
14599;SDS011;7386;45.586;12.854;2023-07-30T12:21:56;1.48;;;1.20;;
14599;SDS011;7386;45.586;12.854;2023-07-30T12:24:24;1.30;;;1.17;;
14599;SDS011;7386;45.586;12.854;2023-07-30T12:26:53;1.35;;;1.13;;
14599;SDS011;7386;45.586;12.854;2023-07-30T12:29:22;2.15;;;1.42;;
14599;SDS011;7386;45.586;12.854;2023-07-30T12:31:51;2.10;;;1.40;;
14599;SDS011;7386;45.586;12.854;2023-07-30T12:34:22;1.50;;;1.27;;
14599;SDS011;7386;45.586;12.854;2023-07-30T12:36:52;1.50;;;1.40;;
14599;SDS011;7386;45.586;12.854;2023-07-30T12:39:22;1.38;;;1.23;;
14599;SDS011;7386;45.586;12.854;2023-07-30T12:41:51;3.30;;;1.45;;
14599;SDS011;7386;45.586;12.854;2023-07-30T12:44:19;2.95;;;1.40;;
14599;SDS011;7386;45.586;12.854;2023-07-30T12:46:48;2.08;;;1.30;;
14599;SDS011;7386;45.586;12.854;2023-07-30T12:49:16;1.42;;;1.10;;
14599;SDS011;7386;45.586;12.854;2023-07-30T12:51:45;3.17;;;1.40;;
14599;SDS011;7386;45.586;12.854;2023-07-30T12:54:14;1.98;;;1.20;;
14599;SDS011;7386;45.586;12.854;2023-07-30T12:56:43;1.30;;;1.20;;
14599;SDS011;7386;45.586;12.854;2023-07-30T12:59:11;24.75;;;8.85;;
14599;SDS011;7386;45.586;12.854;2023-07-30T13:01:40;70.88;;;25.73;;
14599;SDS011;7386;45.586;12.854;2023-07-30T13:04:13;67.78;;;24.45;;
14599;SDS011;7386;45.586;12.854;2023-07-30T13:06:42;66.05;;;22.90;;
14599;SDS011;7386;45.586;12.854;2023-07-30T13:09:10;66.72;;;23.55;;
14599;SDS011;7386;45.586;12.854;2023-07-30T13:11:40;43.63;;;16.67;;
14599;SDS011;7386;45.586;12.854;2023-07-30T13:14:09;36.47;;;13.32;;
14599;SDS011;7386;45.586;12.854;2023-07-30T13:16:37;26.63;;;10.23;;
14599;SDS011;7386;45.586;12.854;2023-07-30T13:19:06;16.08;;;6.60;;
14599;SDS011;7386;45.586;12.854;2023-07-30T13:21:35;13.48;;;5.38;;
14599;SDS011;7386;45.586;12.854;2023-07-30T13:24:04;11.55;;;3.67;;
14599;SDS011;7386;45.586;12.854;2023-07-30T13:26:32;6.63;;;2.88;;
14599;SDS011;7386;45.586;12.854;2023-07-30T13:29:02;5.85;;;2.80;;
14599;SDS011;7386;45.586;12.854;2023-07-30T13:31:31;3.42;;;1.92;;
14599;SDS011;7386;45.586;12.854;2023-07-30T13:34:00;2.67;;;1.70;;
14599;SDS011;7386;45.586;12.854;2023-07-30T13:36:29;3.03;;;1.80;;
14599;SDS011;7386;45.586;12.854;2023-07-30T13:38:57;2.45;;;1.70;;
14599;SDS011;7386;45.586;12.854;2023-07-30T13:41:26;3.03;;;1.77;;
14599;SDS011;7386;45.586;12.854;2023-07-30T13:43:54;2.28;;;1.60;;
14599;SDS011;7386;45.586;12.854;2023-07-30T13:46:24;2.00;;;1.60;;
14599;SDS011;7386;45.586;12.854;2023-07-30T13:48:52;2.65;;;1.60;;
14599;SDS011;7386;45.586;12.854;2023-07-30T13:51:21;1.83;;;1.63;;
14599;SDS011;7386;45.586;12.854;2023-07-30T13:53:49;2.03;;;1.40;;
14599;SDS011;7386;45.586;12.854;2023-07-30T13:56:18;3.38;;;1.60;;
14599;SDS011;7386;45.586;12.854;2023-07-30T13:58:46;3.67;;;1.63;;
14599;SDS011;7386;45.586;12.854;2023-07-30T14:01:15;1.73;;;1.30;;
14599;SDS011;7386;45.586;12.854;2023-07-30T14:03:45;1.67;;;1.25;;
14599;SDS011;7386;45.586;12.854;2023-07-30T14:06:13;1.48;;;1.38;;
14599;SDS011;7386;45.586;12.854;2023-07-30T14:08:42;1.50;;;1.40;;
14599;SDS011;7386;45.586;12.854;2023-07-30T14:11:10;2.63;;;1.50;;
14599;SDS011;7386;45.586;12.854;2023-07-30T14:13:39;1.50;;;1.40;;
14599;SDS011;7386;45.586;12.854;2023-07-30T14:16:07;2.35;;;1.63;;
14599;SDS011;7386;45.586;12.854;2023-07-30T14:18:36;5.22;;;1.92;;
14599;SDS011;7386;45.586;12.854;2023-07-30T14:21:07;2.42;;;1.42;;
14599;SDS011;7386;45.586;12.854;2023-07-30T14:23:35;2.17;;;1.20;;
14599;SDS011;7386;45.586;12.854;2023-07-30T14:26:04;1.30;;;1.20;;
14599;SDS011;7386;45.586;12.854;2023-07-30T14:28:33;1.77;;;1.40;;
14599;SDS011;7386;45.586;12.854;2023-07-30T14:31:01;2.08;;;1.40;;
14599;SDS011;7386;45.586;12.854;2023-07-30T14:33:30;2.50;;;1.40;;
14599;SDS011;7386;45.586;12.854;2023-07-30T14:35:59;2.92;;;1.40;;
14599;SDS011;7386;45.586;12.854;2023-07-30T14:38:29;1.95;;;1.33;;
14599;SDS011;7386;45.586;12.854;2023-07-30T14:41:00;1.60;;;1.50;;
14599;SDS011;7386;45.586;12.854;2023-07-30T14:43:28;2.70;;;1.23;;
14599;SDS011;7386;45.586;12.854;2023-07-30T14:45:57;4.03;;;1.40;;
14599;SDS011;7386;45.586;12.854;2023-07-30T14:48:26;1.70;;;1.40;;
14599;SDS011;7386;45.586;12.854;2023-07-30T14:50:55;1.77;;;1.20;;
14599;SDS011;7386;45.586;12.854;2023-07-30T14:53:23;1.63;;;1.52;;
14599;SDS011;7386;45.586;12.854;2023-07-30T14:55:53;2.33;;;1.30;;